Time;durP1;ratioP1;P1;durP2;ratioP2;P2;SDS_P1;SDS_P2;PMS_P1;PMS_P2;Temp;Humidity;BMP_temperature;BMP_pressure;BME280_temperature;BME280_humidity;BME280_pressure;Samples;Min_cycle;Max_cycle;Signal;HPM_P1;HPM_P2
2022/01/05 00:00:30;;;;;;;;;;;;;;;2.00;100.00;98913.03;5090567;28;938;-73
2022/01/05 00:02:57;;;;;;;;;;;;;;;1.94;100.00;98915.31;5090511;28;709;-72
2022/01/05 00:05:23;;;;;;;;;;;;;;;1.93;100.00;98924.28;5090549;28;1298;-72
2022/01/05 00:07:51;;;;;;;;;;;;;;;1.89;100.00;98931.69;5090282;28;986;-72
2022/01/05 00:10:17;;;;;;;;;;;;;;;1.84;100.00;98929.34;5090317;28;1041;-74
2022/01/05 00:12:43;;;;;;;;;;;;;;;1.82;100.00;98922.41;5090181;28;823;-73
2022/01/05 00:15:10;;;;;;;;;;;;;;;1.79;100.00;98922.63;5090600;28;1985;-72
2022/01/05 00:17:37;;;;;;;;;;;;;;;1.80;100.00;98914.50;5090071;28;1069;-73
2022/01/05 00:20:03;;;;;;;;;;;;;;;1.80;100.00;98909.16;5090445;28;919;-73
2022/01/05 00:22:30;;;;;;;;;;;;;;;1.77;100.00;98906.69;5093856;28;791;-75
2022/01/05 00:24:57;;;;;;;;;;;;;;;1.77;100.00;98920.06;5093833;28;1394;-75
2022/01/05 00:27:24;;;;;;;;;;;;;;;1.80;100.00;98921.66;5093597;28;994;-76
2022/01/05 00:29:50;;;;;;;;;;;;;;;1.83;100.00;98916.94;5092549;28;784;-73
2022/01/05 00:32:16;;;;;;;;;;;;;;;1.82;100.00;98917.91;5094009;28;1048;-74
2022/01/05 00:34:42;;;;;;;;;;;;;;;1.87;100.00;98922.06;5109646;28;1304;-74
2022/01/05 00:37:09;;;;;;;;;;;;;;;1.87;100.00;98922.06;5093588;28;1977;-75
2022/01/05 00:39:35;;;;;;;;;;;;;;;1.86;100.00;98929.25;5093851;28;746;-73
2022/01/05 00:42:03;;;;;;;;;;;;;;;1.85;100.00;98938.22;5109197;28;958;-74
2022/01/05 00:44:29;;;;;;;;;;;;;;;1.84;100.00;98928.47;5093633;28;1371;-73
2022/01/05 00:46:55;;;;;;;;;;;;;;;1.84;100.00;98921.34;5093578;28;982;-75
2022/01/05 00:49:22;;;;;;;;;;;;;;;1.86;100.00;98920.34;5093681;28;977;-74
2022/01/05 00:51:48;;;;;;;;;;;;;;;1.83;100.00;98922.28;5109277;28;1252;-74
2022/01/05 00:54:14;;;;;;;;;;;;;;;1.85;100.00;98922.19;5093400;28;1312;-74
2022/01/05 00:56:40;;;;;;;;;;;;;;;1.86;100.00;98933.72;5093171;28;1910;-75
2022/01/05 00:59:08;;;;;;;;;;;;;;;1.86;100.00;98925.69;5093430;28;1000;-75
2022/01/05 01:01:36;;;;;;;;;;;;;;;1.83;100.00;98921.41;5093771;28;717;-74
2022/01/05 01:04:03;;;;;;;;;;;;;;;1.79;100.00;98919.94;5093287;28;1319;-73
2022/01/05 01:06:29;;;;;;;;;;;;;;;1.76;100.00;98926.38;5092793;28;982;-74
2022/01/05 01:08:55;;;;;;;;;;;;;;;1.77;100.00;98917.38;5092069;28;1273;-74
2022/01/05 01:11:21;;;;;;;;;;;;;;;1.79;100.00;98914.59;5093308;28;792;-75
2022/01/05 01:13:48;;;;;;;;;;;;;;;1.80;100.00;98909.16;5108805;28;1371;-74
2022/01/05 01:16:15;;;;;;;;;;;;;;;1.79;100.00;98904.75;5093163;28;1978;-73
2022/01/05 01:18:41;;;;;;;;;;;;;;;1.78;100.00;98910.22;5093316;28;1024;-75
2022/01/05 01:21:08;;;;;;;;;;;;;;;1.79;100.00;98911.91;5092939;28;1042;-74
2022/01/05 01:23:36;;;;;;;;;;;;;;;1.79;100.00;98914.59;5092730;28;1513;-74
2022/01/05 01:26:03;;;;;;;;;;;;;;;1.79;100.00;98920.81;5108297;28;989;-74
2022/01/05 01:28:29;;;;;;;;;;;;;;;1.80;100.00;98925.22;5093122;28;1082;-74
2022/01/05 01:30:55;;;;;;;;;;;;;;;1.80;100.00;98921.66;5092776;28;914;-74
2022/01/05 01:33:23;;;;;;;;;;;;;;;1.81;100.00;98918.03;5092711;28;1425;-75
2022/01/05 01:35:49;;;;;;;;;;;;;;;1.86;100.00;98921.22;5108286;28;1926;-75
2022/01/05 01:38:15;;;;;;;;;;;;;;;1.89;100.00;98922.81;5092694;28;1026;-74
2022/01/05 01:40:42;;;;;;;;;;;;;;;1.93;100.00;98929.63;5091546;28;811;-75
2022/01/05 01:43:08;;;;;;;;;;;;;;;1.97;100.00;98931.13;5093211;28;983;-75
2022/01/05 01:45:35;;;;;;;;;;;;;;;1.99;100.00;98922.00;5092471;28;1297;-72
2022/01/05 01:48:01;;;;;;;;;;;;;;;2.04;100.00;98920.81;5092384;28;1014;-75
2022/01/05 01:50:28;;;;;;;;;;;;;;;2.04;100.00;98908.28;5092416;28;1006;-72
2022/01/05 01:52:55;;;;;;;;;;;;;;;2.08;100.00;98912.41;5092432;28;761;-73
2022/01/05 01:55:21;;;;;;;;;;;;;;;2.09;100.00;98916.81;5108077;28;1271;-72
2022/01/05 01:57:48;;;;;;;;;;;;;;;2.11;100.00;98904.19;5092092;28;1914;-72
2022/01/05 02:00:15;;;;;;;;;;;;;;;2.14;100.00;98905.78;5092527;28;1064;-74
2022/01/05 02:02:43;;;;;;;;;;;;;;;2.14;100.00;98909.28;5107948;28;713;-74
2022/01/05 02:05:09;;;;;;;;;;;;;;;2.15;100.00;98907.47;5091294;28;1399;-75
2022/01/05 02:07:37;;;;;;;;;;;;;;;2.17;100.00;98908.22;5090698;28;1281;-74
2022/01/05 02:10:04;;;;;;;;;;;;;;;2.20;100.00;98907.13;5091063;28;859;-74
2022/01/05 02:12:30;;;;;;;;;;;;;;;2.20;100.00;98901.78;5090906;28;1174;-74
2022/01/05 02:14:57;;;;;;;;;;;;;;;2.18;100.00;98900.06;5092301;28;1300;-74
2022/01/05 02:17:30;;;;;;;;;;;;;;;2.17;100.00;98897.50;5091792;28;1914;-73
2022/01/05 02:19:56;;;;;;;;;;;;;;;2.17;100.00;98903.69;5091972;28;832;-74
2022/01/05 02:22:24;;;;;;;;;;;;;;;2.18;100.00;98893.88;5090842;28;798;-75
2022/01/05 02:24:50;;;;;;;;;;;;;;;2.18;100.00;98897.38;5123329;22;3785;-75
2022/01/05 02:27:17;;;;;;;;;;;;;;;2.22;100.00;98902.50;5071496;28;1669;-74
2022/01/05 02:29:45;;;;;;;;;;;;;;;2.18;100.00;98916.13;5076449;28;863;-75
2022/01/05 02:32:11;;;;;;;;;;;;;;;2.20;100.00;98909.81;5074963;28;991;-74
2022/01/05 02:34:37;;;;;;;;;;;;;;;2.20;100.00;98909.81;5071870;28;1391;-75
2022/01/05 02:37:04;;;;;;;;;;;;;;;2.19;100.00;98908.94;5073347;28;1967;-75
2022/01/05 02:39:32;;;;;;;;;;;;;;;2.22;100.00;98913.22;5089974;28;963;-74
2022/01/05 02:41:58;;;;;;;;;;;;;;;2.20;100.00;98907.97;5091427;28;983;-74
2022/01/05 02:44:24;;;;;;;;;;;;;;;2.18;100.00;98912.59;5091081;28;780;-73
2022/01/05 02:46:50;;;;;;;;;;;;;;;2.18;100.00;98916.13;5073013;28;1321;-75
2022/01/05 02:49:17;;;;;;;;;;;;;;;2.17;100.00;98919.75;5073358;28;1351;-72
2022/01/05 02:51:43;;;;;;;;;;;;;;;2.15;100.00;98913.69;5091279;28;998;-74
2022/01/05 02:54:09;;;;;;;;;;;;;;;2.17;100.00;98906.38;5091485;28;1010;-75
2022/01/05 02:56:37;;;;;;;;;;;;;;;2.16;100.00;98907.38;5072687;28;1981;-75
2022/01/05 02:59:03;;;;;;;;;;;;;;;2.14;100.00;98908.47;5089926;28;911;-73
2022/01/05 03:01:30;;;;;;;;;;;;;;;2.10;100.00;98902.47;5073269;28;862;-75
2022/01/05 03:03:56;;;;;;;;;;;;;;;2.06;100.00;98908.16;5091140;28;982;-73
2022/01/05 03:06:22;;;;;;;;;;;;;;;2.03;100.00;98911.91;5090739;28;1353;-75
2022/01/05 03:08:49;;;;;;;;;;;;;;;2.01;100.00;98916.53;5073248;28;1046;-74
2022/01/05 03:11:15;;;;;;;;;;;;;;;1.98;100.00;98919.44;5073052;28;1294;-72
2022/01/05 03:13:43;;;;;;;;;;;;;;;1.96;100.00;98921.38;5090942;28;994;-75
2022/01/05 03:16:10;;;;;;;;;;;;;;;1.98;100.00;98911.44;5090691;28;1973;-74
2022/01/05 03:18:36;;;;;;;;;;;;;;;1.98;100.00;98908.75;5090877;28;994;-74
2022/01/05 03:21:02;;;;;;;;;;;;;;;1.97;100.00;98907.03;5091118;28;994;-73
2022/01/05 03:23:28;;;;;;;;;;;;;;;1.97;100.00;98907.88;5072848;28;1259;-73
2022/01/05 03:25:55;;;;;;;;;;;;;;;1.89;100.00;98898.72;5072362;28;1340;-75
2022/01/05 03:28:21;;;;;;;;;;;;;;;1.87;100.00;98890.81;5090950;28;915;-75
2022/01/05 03:30:49;;;;;;;;;;;;;;;1.87;100.00;98900.66;5087426;28;1444;-73
2022/01/05 03:33:20;;;;;;;;;;;;;;;1.80;100.00;98898.44;5091098;28;855;-74
2022/01/05 03:35:47;;;;;;;;;;;;;;;1.81;100.00;98901.97;5090735;28;1318;-73
2022/01/05 03:38:15;;;;;;;;;;;;;;;1.78;100.00;98902.19;5091200;28;1980;-74
2022/01/05 03:40:42;;;;;;;;;;;;;;;1.78;100.00;98896.84;5090868;28;1041;-74
2022/01/05 03:43:08;;;;;;;;;;;;;;;1.79;100.00;98901.22;5090930;28;1030;-74
2022/01/05 03:45:36;;;;;;;;;;;;;;;1.81;100.00;98905.47;5090975;28;1390;-73
2022/01/05 03:48:04;;;;;;;;;;;;;;;1.86;100.00;98912.31;5089253;28;1611;-74
2022/01/05 03:50:30;;;;;;;;;;;;;;;1.86;100.00;98901.59;5090687;28;1032;-75
2022/01/05 03:52:56;;;;;;;;;;;;;;;1.89;100.00;98906.75;5072486;28;1061;-72
2022/01/05 03:55:23;;;;;;;;;;;;;;;1.89;100.00;98901.41;5090786;28;1353;-73
2022/01/05 03:57:49;;;;;;;;;;;;;;;1.93;100.00;98898.38;5094338;28;1915;-73
2022/01/05 04:00:16;;;;;;;;;;;;;;;1.95;100.00;98895.56;5094514;28;792;-72
2022/01/05 04:02:43;;;;;;;;;;;;;;;1.99;100.00;98895.25;5093418;28;1029;-73
2022/01/05 04:05:11;;;;;;;;;;;;;;;2.03;100.00;98895.84;5093332;28;1351;-73
2022/01/05 04:07:37;;;;;;;;;;;;;;;2.06;100.00;98914.38;5094125;28;1056;-74
2022/01/05 04:10:04;;;;;;;;;;;;;;;2.09;100.00;98911.47;5094320;28;816;-73
2022/01/05 04:12:30;;;;;;;;;;;;;;;2.13;100.00;98918.28;5076414;28;888;-73
2022/01/05 04:14:57;;;;;;;;;;;;;;;2.15;100.00;98920.84;5094350;28;1320;-73
2022/01/05 04:17:23;;;;;;;;;;;;;;;2.16;100.00;98917.22;5094438;28;1914;-73
2022/01/05 04:19:49;;;;;;;;;;;;;;;2.18;100.00;98921.47;5093200;28;737;-73
2022/01/05 04:22:17;;;;;;;;;;;;;;;2.20;100.00;98923.19;5094351;28;973;-72
2022/01/05 04:24:43;;;;;;;;;;;;;;;2.21;100.00;98919.56;5094022;28;1316;-73
2022/01/05 04:27:09;;;;;;;;;;;;;;;2.24;100.00;98917.47;5093820;28;901;-74
2022/01/05 04:29:36;;;;;;;;;;;;;;;2.26;100.00;98920.91;5094191;28;994;-73
2022/01/05 04:32:03;;;;;;;;;;;;;;;2.28;100.00;98921.63;5093967;28;1037;-74
2022/01/05 04:34:30;;;;;;;;;;;;;;;2.28;100.00;98915.44;5094052;28;962;-73
2022/01/05 04:36:56;;;;;;;;;;;;;;;2.29;100.00;98917.16;5093525;28;1909;-73
2022/01/05 04:39:23;;;;;;;;;;;;;;;2.32;100.00;98922.25;5094241;28;998;-72
2022/01/05 04:41:50;;;;;;;;;;;;;;;2.32;100.00;98917.75;5089064;28;1905;-73
2022/01/05 04:44:16;;;;;;;;;;;;;;;2.35;100.00;98922.03;5083719;28;1181;-73
2022/01/05 04:46:42;;;;;;;;;;;;;;;2.33;100.00;98913.25;5084973;28;1381;-74
2022/01/05 04:49:08;;;;;;;;;;;;;;;2.34;100.00;98920.34;5093946;28;1018;-73
2022/01/05 04:51:35;;;;;;;;;;;;;;;2.32;100.00;98917.75;5093842;28;756;-71
2022/01/05 04:54:01;;;;;;;;;;;;;;;2.32;100.00;98924.94;5093754;28;840;-73
2022/01/05 04:56:29;;;;;;;;;;;;;;;2.32;100.00;98924.94;5093386;28;1301;-73
2022/01/05 04:58:56;;;;;;;;;;;;;;;2.31;100.00;98924.09;5075584;28;1987;-74
2022/01/05 05:01:22;;;;;;;;;;;;;;;2.31;100.00;98934.81;5093702;28;850;-74
2022/01/05 05:03:49;;;;;;;;;;;;;;;2.32;100.00;98938.31;5093912;28;1072;-74
2022/01/05 05:06:15;;;;;;;;;;;;;;;2.34;100.00;98931.03;5094053;28;1293;-73
2022/01/05 05:08:42;;;;;;;;;;;;;;;2.33;100.00;98923.97;5081178;28;721;-74
2022/01/05 05:11:08;;;;;;;;;;;;;;;2.33;100.00;98927.50;5083610;28;923;-71
2022/01/05 05:13:35;;;;;;;;;;;;;;;2.37;100.00;98929.97;5093420;28;1036;-73
2022/01/05 05:16:02;;;;;;;;;;;;;;;2.38;100.00;98927.16;5075222;28;1317;-72
2022/01/05 05:18:28;;;;;;;;;;;;;;;2.37;100.00;98924.59;5093403;28;1980;-74
2022/01/05 05:20:55;;;;;;;;;;;;;;;2.35;100.00;98922.03;5093128;28;1006;-72
2022/01/05 05:23:21;;;;;;;;;;;;;;;2.36;100.00;98906.81;5092944;28;967;-73
2022/01/05 05:25:47;;;;;;;;;;;;;;;2.34;100.00;98914.97;5092804;28;1499;-73
2022/01/05 05:28:14;;;;;;;;;;;;;;;2.35;100.00;98905.94;5093142;28;1001;-73
2022/01/05 05:30:42;;;;;;;;;;;;;;;2.33;100.00;98907.91;5092917;28;903;-72
2022/01/05 05:33:09;;;;;;;;;;;;;;;2.33;100.00;98899.88;5093533;28;911;-74
2022/01/05 05:35:35;;;;;;;;;;;;;;;2.32;100.00;98912.38;5073248;28;1491;-73
2022/01/05 05:38:01;;;;;;;;;;;;;;;2.31;100.00;98909.84;5072644;28;1914;-73
2022/01/05 05:40:28;;;;;;;;;;;;;;;2.27;100.00;98908.38;5073066;28;971;-73
2022/01/05 05:42:54;;;;;;;;;;;;;;;2.25;100.00;98907.63;5072526;28;1041;-73
2022/01/05 05:45:20;;;;;;;;;;;;;;;2.25;100.00;98907.63;5072355;28;1372;-73
2022/01/05 05:47:48;;;;;;;;;;;;;;;2.24;100.00;98905.94;5071753;28;1006;-72
2022/01/05 05:50:14;;;;;;;;;;;;;;;2.22;100.00;98907.84;5074484;28;849;-74
2022/01/05 05:52:40;;;;;;;;;;;;;;;2.22;100.00;98906.06;5055742;28;1138;-73
2022/01/05 05:55:07;;;;;;;;;;;;;;;2.16;100.00;98906.50;5077398;28;1442;-73
2022/01/05 05:57:33;;;;;;;;;;;;;;;2.12;100.00;98908.53;5090126;28;1910;-74
2022/01/05 06:00:00;;;;;;;;;;;;;;;2.14;100.00;98906.63;5092960;28;1563;-73
2022/01/05 06:02:26;;;;;;;;;;;;;;;2.11;100.00;98908.66;5071382;28;1234;-73
2022/01/05 06:04:53;;;;;;;;;;;;;;;2.07;100.00;98917.91;5084844;28;1552;-74
2022/01/05 06:07:20;;;;;;;;;;;;;;;2.04;100.00;98916.31;5074745;28;1409;-74
2022/01/05 06:09:46;;;;;;;;;;;;;;;1.98;100.00;98914.09;5080175;28;1457;-74
2022/01/05 06:12:12;;;;;;;;;;;;;;;1.92;100.00;98923.41;5076348;28;1142;-74
2022/01/05 06:14:38;;;;;;;;;;;;;;;1.87;100.00;98911.34;5063704;28;1493;-72
2022/01/05 06:17:05;;;;;;;;;;;;;;;1.86;100.00;98917.66;5054756;28;1943;-75
2022/01/05 06:19:31;;;;;;;;;;;;;;;1.84;100.00;98921.34;5059367;28;1580;-73
2022/01/05 06:21:58;;;;;;;;;;;;;;;1.81;100.00;98912.66;5092951;28;793;-73
2022/01/05 06:24:25;;;;;;;;;;;;;;;1.81;100.00;98918.03;5089633;28;1524;-73
2022/01/05 06:26:52;;;;;;;;;;;;;;;1.81;100.00;98918.88;5089338;28;1289;-74
2022/01/05 06:29:19;;;;;;;;;;;;;;;1.82;100.00;98915.22;5072369;28;1520;-72
2022/01/05 06:31:45;;;;;;;;;;;;;;;1.86;100.00;98931.91;5071840;28;891;-74
2022/01/05 06:34:11;;;;;;;;;;;;;;;1.88;100.00;98921.94;5083158;28;1512;-72
2022/01/05 06:36:38;;;;;;;;;;;;;;;1.88;100.00;98923.78;5091149;28;1423;-73
2022/01/05 06:39:05;;;;;;;;;;;;;;;1.86;100.00;98928.38;5075791;28;1918;-73
2022/01/05 06:41:32;;;;;;;;;;;;;;;1.84;100.00;98934.72;5071775;28;1053;-73
2022/01/05 06:43:58;;;;;;;;;;;;;;;1.81;100.00;98944.78;5084248;28;1575;-73
2022/01/05 06:46:24;;;;;;;;;;;;;;;1.76;100.00;98946.94;5068201;28;1725;-75
2022/01/05 06:48:50;;;;;;;;;;;;;;;1.75;100.00;98950.56;5031847;28;1480;-74
2022/01/05 06:51:17;;;;;;;;;;;;;;;1.71;100.00;98949.09;5062901;28;996;-74
2022/01/05 06:53:43;;;;;;;;;;;;;;;1.65;100.00;98937.00;5057857;28;1516;-74
2022/01/05 06:56:11;;;;;;;;;;;;;;;1.63;100.00;98953.19;5086842;28;1368;-74
2022/01/05 06:58:37;;;;;;;;;;;;;;;1.56;100.00;98959.06;5072306;28;1918;-74
2022/01/05 07:01:03;;;;;;;;;;;;;;;1.53;100.00;98957.47;5073383;28;1529;-75
2022/01/05 07:03:29;;;;;;;;;;;;;;;1.47;100.00;98963.25;5092616;28;974;-75
2022/01/05 07:05:56;;;;;;;;;;;;;;;1.41;100.00;98969.06;5075617;28;1489;-76
2022/01/05 07:08:22;;;;;;;;;;;;;;;1.37;100.00;98967.56;5079353;28;1528;-75
2022/01/05 07:10:48;;;;;;;;;;;;;;;1.32;100.00;98984.78;5075831;28;1489;-75
2022/01/05 07:13:16;;;;;;;;;;;;;;;1.30;100.00;98981.38;5091789;28;1532;-74
2022/01/05 07:15:42;;;;;;;;;;;;;;;1.27;100.00;98989.59;5083544;28;1524;-73
2022/01/05 07:18:09;;;;;;;;;;;;;;;1.33;100.00;98982.97;5084789;28;1909;-73
2022/01/05 07:20:35;;;;;;;;;;;;;;;1.33;100.00;98994.50;5085561;28;1476;-75
2022/01/05 07:23:01;;;;;;;;;;;;;;;1.31;100.00;98998.25;5082435;28;985;-74
2022/01/05 07:25:27;;;;;;;;;;;;;;;1.33;100.00;98999.84;5065510;28;1457;-73
2022/01/05 07:27:54;;;;;;;;;;;;;;;1.32;100.00;98992.81;5080035;28;1611;-73
2022/01/05 07:30:21;;;;;;;;;;;;;;;1.34;100.00;98990.03;5081383;28;2352;-74
2022/01/05 07:32:47;;;;;;;;;;;;;;;1.38;100.00;98996.88;5075557;28;1189;-74
2022/01/05 07:35:14;;;;;;;;;;;;;;;1.38;100.00;98994.19;5074783;28;1478;-75
2022/01/05 07:37:40;;;;;;;;;;;;;;;1.36;100.00;98998.78;5076037;28;1917;-75
2022/01/05 07:40:07;;;;;;;;;;;;;;;1.32;100.00;98997.28;5061328;28;1560;-73
2022/01/05 07:42:35;;;;;;;;;;;;;;;1.31;100.00;98993.78;5094294;28;1385;-73
2022/01/05 07:45:02;;;;;;;;;;;;;;;1.31;100.00;98998.25;5064176;28;1592;-75
2022/01/05 07:47:29;;;;;;;;;;;;;;;1.34;100.00;98995.38;5073909;28;1498;-75
2022/01/05 07:49:56;;;;;;;;;;;;;;;1.35;100.00;98994.41;5105031;28;1566;-74
2022/01/05 07:52:22;;;;;;;;;;;;;;;1.39;100.00;98992.38;5089719;28;1050;-74
2022/01/05 07:54:50;;;;;;;;;;;;;;;1.42;100.00;98993.00;5085061;28;1551;-74
2022/01/05 07:57:16;;;;;;;;;;;;;;;1.40;100.00;98992.25;5086212;28;1436;-75
2022/01/05 07:59:42;;;;;;;;;;;;;;;1.40;100.00;98978.88;5083964;28;1922;-75
2022/01/05 08:02:09;;;;;;;;;;;;;;;1.41;100.00;98985.09;5082606;28;1635;-76
2022/01/05 08:04:36;;;;;;;;;;;;;;;1.43;100.00;98980.47;5104330;28;1496;-75
2022/01/05 08:07:03;;;;;;;;;;;;;;;1.45;100.00;98979.41;5089661;28;1401;-74
2022/01/05 08:09:29;;;;;;;;;;;;;;;1.45;100.00;98973.22;5079500;28;1583;-74
2022/01/05 08:11:56;;;;;;;;;;;;;;;1.45;100.00;98982.09;5090624;28;1085;-76
2022/01/05 08:14:22;;;;;;;;;;;;;;;1.48;100.00;98978.34;5085267;28;1547;-73
2022/01/05 08:16:48;;;;;;;;;;;;;;;1.53;100.00;98986.06;5078614;28;1481;-74
2022/01/05 08:19:15;;;;;;;;;;;;;;;1.54;100.00;98987.75;5073194;28;1918;-74
2022/01/05 08:21:42;;;;;;;;;;;;;;;1.53;100.00;98994.06;5085092;28;1521;-74
2022/01/05 08:24:08;;;;;;;;;;;;;;;1.50;100.00;98998.66;5072238;28;978;-73
2022/01/05 08:26:35;;;;;;;;;;;;;;;1.52;100.00;99001.22;5095917;22;3556;-71
2022/01/05 08:29:01;;;;;;;;;;;;;;;1.56;100.00;98999.19;5065981;28;1778;-71
2022/01/05 08:31:27;;;;;;;;;;;;;;;1.56;100.00;99002.72;5065726;28;946;-70
2022/01/05 08:33:56;;;;;;;;;;;;;;;1.58;100.00;98997.28;5069853;28;979;-69
2022/01/05 08:36:22;;;;;;;;;;;;;;;1.56;100.00;98993.84;5076360;28;2166;-68
2022/01/05 08:38:50;;;;;;;;;;;;;;;1.54;100.00;98990.41;5080633;28;1890;-69
2022/01/05 08:41:16;;;;;;;;;;;;;;;1.55;100.00;98986.78;5068218;28;1521;-69
2022/01/05 08:43:43;;;;;;;;;;;;;;;1.56;100.00;98996.53;5072419;28;1542;-68
2022/01/05 08:46:09;;;;;;;;;;;;;;;1.60;100.00;98998.00;5072955;28;1378;-69
2022/01/05 08:48:36;;;;;;;;;;;;;;;1.69;100.00;99000.03;5070492;28;1441;-70
2022/01/05 08:51:02;;;;;;;;;;;;;;;1.86;100.00;99001.50;5073286;28;844;-69
2022/01/05 08:53:29;;;;;;;;;;;;;;;2.15;100.00;99003.84;5072662;28;1541;-70
2022/01/05 08:55:56;;;;;;;;;;;;;;;2.44;100.00;99001.66;5045914;28;1412;-72
2022/01/05 08:58:23;;;;;;;;;;;;;;;2.62;100.00;98996.78;5053425;28;1910;-70
2022/01/05 09:00:49;;;;;;;;;;;;;;;2.74;100.00;99003.03;5070269;28;1422;-70
2022/01/05 09:03:17;;;;;;;;;;;;;;;2.60;100.00;99013.94;5072789;28;1568;-72
2022/01/05 09:05:44;;;;;;;;;;;;;;;2.57;100.00;98998.94;5072936;28;1521;-72
2022/01/05 09:08:10;;;;;;;;;;;;;;;2.58;100.00;98997.97;5073251;28;1517;-70
2022/01/05 09:10:37;;;;;;;;;;;;;;;2.65;100.00;98999.19;5072616;28;876;-71
2022/01/05 09:13:05;;;;;;;;;;;;;;;2.78;100.00;98991.09;5072635;28;1280;-71
2022/01/05 09:15:33;;;;;;;;;;;;;;;2.90;100.00;99009.88;5080265;28;1497;-71
2022/01/05 09:18:00;;;;;;;;;;;;;;;3.00;100.00;98992.97;5071650;28;1906;-70
2022/01/05 09:20:26;;;;;;;;;;;;;;;2.93;100.00;98997.09;5053116;28;970;-72
2022/01/05 09:22:52;;;;;;;;;;;;;;;2.80;100.00;98994.50;5071758;28;1091;-71
2022/01/05 09:25:19;;;;;;;;;;;;;;;2.78;100.00;98999.13;5072318;28;1544;-69
2022/01/05 09:27:46;;;;;;;;;;;;;;;2.87;100.00;99004.75;5060315;28;1415;-70
2022/01/05 09:30:15;;;;;;;;;;;;;;;2.93;100.00;98996.25;5077864;28;1406;-71
2022/01/05 09:32:41;;;;;;;;;;;;;;;2.85;100.00;98999.53;5066881;28;1377;-71
2022/01/05 09:35:10;;;;;;;;;;;;;;;2.85;100.00;98984.28;5071042;28;1366;-71
2022/01/05 09:37:48;;;;;;;;;;;;;;;2.88;100.00;99004.63;5052797;28;1503;-70
2022/01/05 09:42:55;;;;;;;;;;;;;;;2.93;100.00;99001.63;5026005;28;1396;-69
2022/01/05 09:45:23;;;;;;;;;;;;;;;2.92;100.00;99014.16;5059200;28;1390;-72
2022/01/05 09:48:02;;;;;;;;;;;;;;;2.88;100.00;99015.34;5077432;28;1179;-73
2022/01/05 09:50:29;;;;;;;;;;;;;;;2.90;100.00;99017.91;5072380;28;998;-71
2022/01/05 09:52:56;;;;;;;;;;;;;;;2.95;100.00;99016.63;5070988;28;1490;-71
2022/01/05 09:55:22;;;;;;;;;;;;;;;2.96;100.00;99015.63;5052657;28;1434;-69
2022/01/05 09:57:48;;;;;;;;;;;;;;;3.04;100.00;99012.34;5071214;28;1523;-71
2022/01/05 10:00:16;;;;;;;;;;;;;;;2.98;100.00;99018.19;5045342;28;1918;-72
2022/01/05 10:02:45;;;;;;;;;;;;;;;2.94;100.00;99008.66;5071138;28;1393;-73
2022/01/05 10:05:12;;;;;;;;;;;;;;;2.89;100.00;99022.44;5051593;28;1200;-72
2022/01/05 10:07:39;;;;;;;;;;;;;;;2.87;100.00;99020.84;5051775;28;1322;-72
2022/01/05 10:10:06;;;;;;;;;;;;;;;2.87;100.00;99019.00;5076229;28;1116;-72
2022/01/05 10:12:32;;;;;;;;;;;;;;;2.90;100.00;99017.91;5072233;28;1505;-71
2022/01/05 10:14:58;;;;;;;;;;;;;;;2.96;100.00;99028.19;5073674;28;1042;-71
2022/01/05 10:17:25;;;;;;;;;;;;;;;2.95;100.00;99030.00;5091831;28;1293;-72
2022/01/05 10:19:57;;;;;;;;;;;;;;;2.96;100.00;99022.81;5073889;28;1983;-73
2022/01/05 10:22:27;;;;;;;;;;;;;;;3.11;100.00;99039.53;5085489;28;1338;-72
2022/01/05 10:24:56;;;;;;;;;;;;;;;3.07;100.00;99030.03;5075702;28;1580;-73
2022/01/05 10:27:23;;;;;;;;;;;;;;;3.01;100.00;99026.84;5056902;28;1485;-70
2022/01/05 10:29:53;;;;;;;;;;;;;;;3.03;100.00;99017.84;5052679;28;1323;-72
2022/01/05 10:32:19;;;;;;;;;;;;;;;3.06;100.00;99022.94;5084769;28;1318;-72
2022/01/05 10:34:58;;;;;;;;;;;;;;;3.01;100.00;99020.63;5070163;28;1387;-69
2022/01/05 10:37:26;;;;;;;;;;;;;;;3.03;100.00;99025.88;5085974;28;1463;-71
2022/01/05 10:40:03;;;;;;;;;;;;;;;3.07;100.00;99016.63;5091586;28;1921;-70
2022/01/05 10:42:31;;;;;;;;;;;;;;;2.98;100.00;99021.72;5091606;28;847;-71
2022/01/05 10:44:58;;;;;;;;;;;;;;;2.99;100.00;99023.44;5070646;28;1905;-71
2022/01/05 10:47:25;;;;;;;;;;;;;;;3.06;100.00;99015.78;5070837;28;1414;-70
2022/01/05 10:49:51;;;;;;;;;;;;;;;3.00;100.00;99002.84;5070744;28;891;-70
2022/01/05 10:52:22;;;;;;;;;;;;;;;3.03;100.00;99001.75;5070492;28;1478;-71
2022/01/05 10:54:50;;;;;;;;;;;;;;;3.12;100.00;99007.25;5071227;28;1502;-71
2022/01/05 10:57:17;;;;;;;;;;;;;;;3.24;100.00;99007.28;5052897;28;1342;-70
2022/01/05 10:59:45;;;;;;;;;;;;;;;3.23;100.00;99000.19;5070646;28;2044;-71
2022/01/05 11:02:24;;;;;;;;;;;;;;;3.29;100.00;98997.88;5072491;28;1328;-69
2022/01/05 11:04:51;;;;;;;;;;;;;;;3.28;100.00;99000.69;5049951;28;930;-71
2022/01/05 11:07:21;;;;;;;;;;;;;;;3.29;100.00;99002.41;5069027;28;1560;-71
2022/01/05 11:10:00;;;;;;;;;;;;;;;3.45;100.00;99007.44;5072929;28;1317;-71
2022/01/05 11:12:33;;;;;;;;;;;;;;;3.50;100.00;98998.03;5058962;28;1363;-71
2022/01/05 11:15:18;;;;;;;;;;;;;;;3.63;100.00;98999.72;5070769;28;958;-70
2022/01/05 11:18:00;;;;;;;;;;;;;;;3.66;100.00;98989.63;5070068;28;1427;-69
2022/01/05 11:20:27;;;;;;;;;;;;;;;3.60;100.00;98997.31;5069823;28;1918;-70
2022/01/05 11:22:54;;;;;;;;;;;;;;;3.60;100.00;98987.41;5052542;28;939;-71
2022/01/05 11:25:21;;;;;;;;;;;;;;;3.71;100.00;98989.22;5070718;28;1045;-69
2022/01/05 11:27:48;;;;;;;;;;;;;;;3.74;100.00;99002.41;5069886;28;1013;-70
2022/01/05 11:30:14;;;;;;;;;;;;;;;3.80;100.00;98998.38;5070114;28;1335;-70
2022/01/05 11:32:40;;;;;;;;;;;;;;;3.79;100.00;99002.88;5070244;28;1529;-70
2022/01/05 11:35:07;;;;;;;;;;;;;;;4.00;100.00;98997.59;5070495;28;994;-70
2022/01/05 11:37:34;;;;;;;;;;;;;;;4.04;100.00;98992.84;5070563;28;1311;-71
2022/01/05 11:40:03;;;;;;;;;;;;;;;4.12;100.00;98990.38;5069825;28;1910;-70
2022/01/05 11:42:35;;;;;;;;;;;;;;;4.05;100.00;98989.19;5066740;28;1743;-70
2022/01/05 11:45:01;;;;;;;;;;;;;;;3.98;100.00;98987.97;5070666;28;1010;-70
2022/01/05 11:47:29;;;;;;;;;;;;;;;3.80;100.00;98985.81;5069998;28;1304;-70
2022/01/05 11:49:56;;;;;;;;;;;;;;;3.80;100.00;98990.31;5070338;28;1006;-70
2022/01/05 11:52:37;;;;;;;;;;;;;;;3.67;100.00;98988.63;5070201;28;1510;-70
2022/01/05 11:55:05;;;;;;;;;;;;;;;3.59;100.00;98982.16;5069870;28;1249;-71
2022/01/05 11:57:33;;;;;;;;;;;;;;;3.46;100.00;98969.75;5069857;28;1459;-70
2022/01/05 12:00:14;;;;;;;;;;;;;;;3.42;100.00;98981.69;5070651;28;1979;-70
2022/01/05 12:02:41;;;;;;;;;;;;;;;3.43;100.00;98983.38;5070834;28;1549;-69
2022/01/05 12:05:07;;;;;;;;;;;;;;;3.41;100.00;98985.34;5088968;28;1179;-68
2022/01/05 12:07:35;;;;;;;;;;;;;;;3.35;100.00;98992.06;5083594;28;1312;-70
2022/01/05 12:10:09;;;;;;;;;;;;;;;3.31;100.00;98990.59;5070125;28;1335;-70
2022/01/05 12:12:38;;;;;;;;;;;;;;;3.32;100.00;98986.91;5056481;28;1034;-69
2022/01/05 12:15:05;;;;;;;;;;;;;;;3.33;100.00;98993.16;5087045;28;1073;-71
2022/01/05 12:17:33;;;;;;;;;;;;;;;3.26;100.00;98992.78;5091699;28;1513;-71
2022/01/05 12:20:07;;;;;;;;;;;;;;;3.23;100.00;98993.00;5073537;28;1938;-71
2022/01/05 12:22:33;;;;;;;;;;;;;;;3.26;100.00;98987.41;5073533;28;1307;-71
2022/01/05 12:25:23;;;;;;;;;;;;;;;3.29;100.00;98991.69;5073599;28;1258;-71
2022/01/05 12:27:52;;;;;;;;;;;;;;;3.31;100.00;98984.34;5068140;28;1084;-72
2022/01/05 12:30:33;;;;;;;;;;;;;;;3.29;100.00;98991.69;5073735;28;938;-72
2022/01/05 12:33:01;;;;;;;;;;;;;;;3.29;100.00;98989.00;5073208;28;1749;-70
2022/01/05 12:35:27;;;;;;;;;;;;;;;3.25;100.00;98987.53;5071470;28;1411;-68
2022/01/05 12:37:56;;;;;;;;;;;;;;;3.21;100.00;98988.72;5073452;28;950;-71
2022/01/05 12:40:29;;;;;;;;;;;;;;;3.19;100.00;98996.91;5073089;28;1906;-70
2022/01/05 12:43:16;;;;;;;;;;;;;;;3.20;100.00;99005.81;5073347;28;942;-69
2022/01/05 12:45:47;;;;;;;;;;;;;;;3.18;100.00;98990.69;5073366;28;1633;-69
2022/01/05 12:48:28;;;;;;;;;;;;;;;3.20;100.00;98989.72;5057794;28;1475;-72
2022/01/05 12:50:55;;;;;;;;;;;;;;;3.21;100.00;98991.41;5071958;28;1549;-71
2022/01/05 12:53:34;;;;;;;;;;;;;;;3.24;100.00;98983.97;5068649;28;1398;-70
2022/01/05 12:56:01;;;;;;;;;;;;;;;3.33;100.00;98983.25;5058074;28;1369;-71
2022/01/05 12:58:33;;;;;;;;;;;;;;;3.36;100.00;98987.53;5055292;28;1537;-71
2022/01/05 13:01:00;;;;;;;;;;;;;;;3.39;100.00;98968.50;5053768;28;1984;-71
2022/01/05 13:03:30;;;;;;;;;;;;;;;3.36;100.00;98982.16;5055158;28;1022;-72